createdAt,value
2022-12-26T00:02:35.651Z,7.37
2022-12-26T00:05:22.441Z,7.42
2022-12-26T00:08:08.681Z,7.60
2022-12-26T00:10:55.033Z,7.77
2022-12-26T00:13:42.562Z,7.87
2022-12-26T00:16:29.160Z,7.78
2022-12-26T00:19:15.840Z,7.93
2022-12-26T00:22:01.980Z,7.80
2022-12-26T00:24:48.466Z,7.76
2022-12-26T00:27:34.839Z,7.61
2022-12-26T00:30:21.288Z,7.43
2022-12-26T00:33:07.758Z,7.22
2022-12-26T00:36:00.196Z,7.02
2022-12-26T00:38:47.813Z,6.82
2022-12-26T00:41:34.461Z,6.89
2022-12-26T00:44:20.701Z,6.84
2022-12-26T00:47:07.371Z,6.61
2022-12-26T00:50:12.631Z,6.51
2022-12-26T00:53:01.026Z,6.46
2022-12-26T00:55:47.254Z,6.59
2022-12-26T00:58:33.969Z,6.46
2022-12-26T01:01:23.151Z,6.31
2022-12-26T01:04:09.971Z,6.31
2022-12-26T01:06:56.163Z,6.30
2022-12-26T01:09:42.993Z,6.41
2022-12-26T01:12:29.159Z,6.39
2022-12-26T01:15:15.571Z,6.36
2022-12-26T01:18:02.077Z,6.36
2022-12-26T01:20:49.040Z,6.42
2022-12-26T01:23:35.673Z,6.53
2022-12-26T01:26:22.034Z,6.56
2022-12-26T01:29:09.261Z,6.63
2022-12-26T01:31:55.841Z,6.57
2022-12-26T01:34:42.542Z,6.60
2022-12-26T01:37:28.802Z,6.57
2022-12-26T01:40:15.070Z,6.59
2022-12-26T01:43:01.277Z,6.43
2022-12-26T01:45:51.110Z,6.45
2022-12-26T01:48:37.535Z,6.47
2022-12-26T01:51:28.569Z,6.56
2022-12-26T01:54:40.081Z,6.54
2022-12-26T01:57:31.081Z,6.60
2022-12-26T02:00:17.632Z,6.56
2022-12-26T02:03:25.020Z,6.61
2022-12-26T02:06:14.612Z,6.66
2022-12-26T02:09:01.694Z,6.58
2022-12-26T02:12:34.129Z,6.68
2022-12-26T02:15:02.736Z,6.64
2022-12-26T02:17:49.659Z,6.39
2022-12-26T02:20:59.422Z,6.39
2022-12-26T02:23:59.870Z,6.51
2022-12-26T02:27:22.345Z,6.56
2022-12-26T02:30:43.022Z,6.71
2022-12-26T02:33:57.362Z,6.78
2022-12-26T02:36:59.156Z,6.77
2022-12-26T02:40:00.461Z,6.87
2022-12-26T02:43:03.018Z,6.77
2022-12-26T02:46:43.823Z,6.99
2022-12-26T02:49:58.855Z,7.01
2022-12-26T02:53:35.541Z,6.96
2022-12-26T02:56:54.460Z,6.95
2022-12-26T03:00:25.327Z,6.91
2022-12-26T03:03:40.919Z,6.93
2022-12-26T03:06:50.611Z,6.87
2022-12-26T03:09:57.566Z,6.71
2022-12-26T03:13:11.132Z,6.92
2022-12-26T03:16:27.340Z,6.93
2022-12-26T03:19:15.179Z,6.98
2022-12-26T03:22:23.270Z,7.09
2022-12-26T03:26:10.451Z,7.02
2022-12-26T03:29:19.005Z,6.91
2022-12-26T03:32:08.926Z,6.94
2022-12-26T03:34:55.511Z,6.77
2022-12-26T03:37:50.347Z,6.95
2022-12-26T03:41:23.230Z,7.02
2022-12-26T03:44:53.858Z,7.06
2022-12-26T03:48:25.610Z,7.11
2022-12-26T03:51:43.082Z,7.16
2022-12-26T03:55:29.296Z,7.24
2022-12-26T03:58:41.117Z,7.28
2022-12-26T04:01:59.800Z,7.27
2022-12-26T04:05:05.107Z,7.32
2022-12-26T04:08:18.830Z,7.26
2022-12-26T04:11:31.870Z,7.19
2022-12-26T04:14:52.061Z,7.24
2022-12-26T04:18:05.967Z,7.41
2022-12-26T04:21:29.599Z,7.40
2022-12-26T04:24:49.024Z,7.46
2022-12-26T04:27:54.075Z,7.47
2022-12-26T04:31:03.980Z,7.52
2022-12-26T04:34:15.056Z,7.54
2022-12-26T04:37:23.251Z,7.55
2022-12-26T04:40:34.026Z,7.55
2022-12-26T04:43:48.604Z,7.61
2022-12-26T04:46:41.027Z,7.59
2022-12-26T04:49:46.577Z,7.46
2022-12-26T04:52:51.005Z,7.63
2022-12-26T04:55:37.319Z,7.45
2022-12-26T04:58:24.304Z,7.70
2022-12-26T05:01:29.566Z,7.93
2022-12-26T05:04:36.597Z,7.85
2022-12-26T05:07:44.105Z,7.92
2022-12-26T05:10:30.294Z,7.77
2022-12-26T05:13:16.700Z,7.90
2022-12-26T05:16:21.935Z,7.78
2022-12-26T05:19:32.139Z,7.65
2022-12-26T05:22:37.282Z,7.95
2022-12-26T05:25:51.707Z,8.02
2022-12-26T05:28:43.645Z,8.14
2022-12-26T05:31:35.523Z,8.20
2022-12-26T05:34:22.842Z,8.11
2022-12-26T05:37:09.381Z,8.06
2022-12-26T05:39:55.656Z,7.91
2022-12-26T05:42:41.908Z,8.12
2022-12-26T05:45:28.511Z,8.05
2022-12-26T05:48:14.756Z,8.03
2022-12-26T05:51:03.356Z,7.92
2022-12-26T05:53:50.966Z,7.86
2022-12-26T05:56:37.226Z,7.82
2022-12-26T05:59:23.488Z,7.73
2022-12-26T06:02:09.791Z,7.84
2022-12-26T06:04:56.143Z,7.86
2022-12-26T06:07:42.516Z,7.84
2022-12-26T06:10:29.738Z,7.95
2022-12-26T06:13:16.048Z,7.90
2022-12-26T06:16:07.860Z,7.85
2022-12-26T06:18:55.322Z,7.87
2022-12-26T06:21:41.880Z,7.85
2022-12-26T06:24:28.170Z,7.88
2022-12-26T06:27:14.777Z,7.89
2022-12-26T06:34:27.756Z,7.86
2022-12-26T06:37:14.220Z,8.09
2022-12-26T06:40:00.833Z,8.20
2022-12-26T06:42:47.366Z,8.33
2022-12-26T06:45:34.326Z,8.51
2022-12-26T06:48:20.490Z,8.53
2022-12-26T06:51:10.855Z,8.44
2022-12-26T06:54:00.143Z,8.56
2022-12-26T06:56:46.283Z,8.57
2022-12-26T06:59:32.842Z,8.67
2022-12-26T07:02:19.366Z,8.54
2022-12-26T07:05:06.362Z,8.72
2022-12-26T07:07:53.298Z,8.89
2022-12-26T07:10:39.680Z,9.16
2022-12-26T07:13:26.132Z,9.01
2022-12-26T07:16:13.002Z,8.95
2022-12-26T07:19:00.283Z,8.90
2022-12-26T07:21:47.292Z,8.80
2022-12-26T07:24:33.764Z,9.03
2022-12-26T07:27:19.974Z,8.81
2022-12-26T07:30:06.969Z,9.01
2022-12-26T07:32:53.094Z,9.00
2022-12-26T07:35:39.852Z,8.90
2022-12-26T07:38:25.964Z,8.86
2022-12-26T07:41:31.580Z,8.78
2022-12-26T07:44:19.531Z,8.59
2022-12-26T07:47:06.226Z,8.69
2022-12-26T07:49:52.566Z,8.70
2022-12-26T07:52:38.839Z,8.59
2022-12-26T07:55:25.123Z,8.71
2022-12-26T07:58:11.308Z,8.57
2022-12-26T08:01:05.003Z,8.71
2022-12-26T08:03:53.139Z,8.62
2022-12-26T08:06:39.464Z,8.64
2022-12-26T08:09:25.700Z,8.51
2022-12-26T08:12:13.114Z,8.77
2022-12-26T08:14:59.511Z,8.60
2022-12-26T08:17:46.620Z,8.63
2022-12-26T08:20:33.744Z,8.66
2022-12-26T08:23:20.169Z,8.70
2022-12-26T08:26:08.876Z,8.82
2022-12-26T08:28:56.837Z,8.74
2022-12-26T08:31:43.427Z,8.83
2022-12-26T08:34:34.338Z,8.96
2022-12-26T08:37:21.009Z,9.52
2022-12-26T08:40:09.358Z,9.88
2022-12-26T08:43:12.200Z,10.07
2022-12-26T08:46:06.996Z,10.22
2022-12-26T08:48:53.458Z,10.29
2022-12-26T08:51:40.296Z,10.22
2022-12-26T08:54:26.587Z,10.09
2022-12-26T08:57:13.799Z,10.01
2022-12-26T09:00:00.387Z,10.08
2022-12-26T09:02:47.882Z,10.02
2022-12-26T09:05:34.404Z,9.90
2022-12-26T09:08:20.779Z,10.12
2022-12-26T09:11:13.587Z,9.97
2022-12-26T09:14:02.291Z,10.02
2022-12-26T09:16:51.041Z,10.14
2022-12-26T09:19:37.675Z,10.05
2022-12-26T09:22:42.782Z,10.07
2022-12-26T09:25:29.229Z,10.01
2022-12-26T09:28:15.478Z,9.85
2022-12-26T09:31:04.513Z,9.77
2022-12-26T09:33:52.427Z,9.81
2022-12-26T09:36:39.016Z,9.81
2022-12-26T09:39:25.551Z,9.87
2022-12-26T09:42:48.424Z,9.82
2022-12-26T09:45:49.310Z,9.66
2022-12-26T09:48:45.848Z,9.71
2022-12-26T09:51:35.294Z,9.79
2022-12-26T09:54:39.188Z,9.85
2022-12-26T09:57:39.904Z,9.83
2022-12-26T10:00:39.463Z,9.78
2022-12-26T10:03:26.856Z,9.75
2022-12-26T10:06:15.016Z,9.73
2022-12-26T10:09:45.795Z,9.79
2022-12-26T10:12:50.506Z,9.80
2022-12-26T10:15:39.657Z,9.80
2022-12-26T10:18:44.485Z,9.83
2022-12-26T10:22:05.392Z,9.84
2022-12-26T10:24:52.197Z,9.85
2022-12-26T10:27:42.640Z,9.89
2022-12-26T10:30:35.795Z,9.83
2022-12-26T10:33:53.445Z,9.87
2022-12-26T10:36:46.000Z,9.86
2022-12-26T10:39:45.229Z,9.78
2022-12-26T10:42:37.814Z,9.73
2022-12-26T10:45:43.275Z,9.74
2022-12-26T10:48:29.810Z,9.76
2022-12-26T10:51:16.712Z,9.74
2022-12-26T10:54:03.101Z,9.48
2022-12-26T10:56:51.697Z,9.69
2022-12-26T10:59:46.018Z,9.63
2022-12-26T11:02:32.996Z,9.62
2022-12-26T11:08:47.550Z,9.55
2022-12-26T11:12:02.078Z,9.64
2022-12-26T11:14:48.905Z,9.74
2022-12-26T11:17:43.378Z,9.90
2022-12-26T11:20:30.831Z,10.00
2022-12-26T11:23:25.859Z,10.03
2022-12-26T11:26:18.514Z,10.18
2022-12-26T11:29:16.831Z,10.30
2022-12-26T11:32:04.835Z,10.44
2022-12-26T11:34:51.301Z,10.37
2022-12-26T11:37:44.320Z,10.61
2022-12-26T11:40:39.134Z,10.73
2022-12-26T11:43:27.165Z,10.81
2022-12-26T11:46:13.990Z,10.88
2022-12-26T11:49:01.571Z,10.80
2022-12-26T11:51:52.872Z,10.91
2022-12-26T11:54:50.946Z,10.84
2022-12-26T11:57:37.288Z,10.69
2022-12-26T12:00:24.961Z,10.85
2022-12-26T12:03:16.113Z,10.92
2022-12-26T12:06:21.222Z,11.10
2022-12-26T12:09:23.374Z,11.13
2022-12-26T12:12:19.005Z,11.31
2022-12-26T12:15:22.889Z,11.44
2022-12-26T12:18:38.681Z,11.51
2022-12-26T12:22:05.397Z,11.65
2022-12-26T12:25:10.559Z,11.70
2022-12-26T12:28:19.062Z,11.64
2022-12-26T12:31:42.901Z,11.46
2022-12-26T12:34:45.392Z,11.34
2022-12-26T12:37:46.894Z,11.23
2022-12-26T12:41:16.380Z,11.07
2022-12-26T12:44:26.887Z,10.98
2022-12-26T12:47:24.317Z,10.92
2022-12-26T12:50:25.845Z,10.80
2022-12-26T12:53:49.422Z,10.94
2022-12-26T12:56:48.654Z,11.02
2022-12-26T12:59:52.350Z,10.83
2022-12-26T13:02:41.914Z,10.91
2022-12-26T13:06:05.543Z,11.04
2022-12-26T13:09:04.196Z,11.02
2022-12-26T13:12:01.420Z,11.09
2022-12-26T13:14:56.222Z,10.99
2022-12-26T13:17:48.059Z,10.90
2022-12-26T13:20:42.542Z,10.92
2022-12-26T13:23:59.517Z,10.93
2022-12-26T13:26:54.573Z,11.07
2022-12-26T13:29:44.339Z,11.15
2022-12-26T13:32:33.879Z,11.06
2022-12-26T13:35:54.343Z,11.29
2022-12-26T13:38:56.432Z,11.19
2022-12-26T13:42:16.091Z,11.03
2022-12-26T13:45:39.177Z,11.09
2022-12-26T13:48:32.558Z,11.09
2022-12-26T13:51:40.888Z,11.07
2022-12-26T13:54:28.547Z,11.13
2022-12-26T13:57:29.597Z,11.09
2022-12-26T14:00:24.922Z,11.19
2022-12-26T14:03:48.972Z,10.95
2022-12-26T14:06:35.098Z,11.14
2022-12-26T14:09:38.635Z,11.15
2022-12-26T14:12:46.347Z,11.26
2022-12-26T14:15:47.436Z,11.10
2022-12-26T14:18:47.627Z,11.19
2022-12-26T14:22:24.736Z,11.09
2022-12-26T14:25:50.747Z,11.21
2022-12-26T14:29:13.209Z,11.15
2022-12-26T14:32:21.657Z,11.05
2022-12-26T14:35:28.284Z,10.99
2022-12-26T14:38:17.435Z,11.10
2022-12-26T14:41:30.648Z,11.08
2022-12-26T14:44:19.824Z,11.04
2022-12-26T14:47:09.929Z,10.98
2022-12-26T14:49:56.689Z,10.92
2022-12-26T14:52:44.498Z,10.68
2022-12-26T14:55:50.556Z,10.62
2022-12-26T14:58:43.776Z,10.44
2022-12-26T15:01:30.000Z,10.33
2022-12-26T15:04:35.423Z,10.34
2022-12-26T15:07:55.516Z,10.33
2022-12-26T15:10:44.898Z,10.19
2022-12-26T15:13:49.798Z,10.05
2022-12-26T15:16:54.877Z,10.00
2022-12-26T15:20:23.716Z,9.92
2022-12-26T15:23:13.388Z,9.92
2022-12-26T15:26:24.451Z,9.67
2022-12-26T15:29:41.894Z,9.84
2022-12-26T15:32:50.503Z,9.83
2022-12-26T15:35:58.066Z,9.81
2022-12-26T15:38:56.550Z,9.99
2022-12-26T15:41:50.665Z,9.86
2022-12-26T15:45:01.556Z,10.08
2022-12-26T15:48:12.661Z,9.89
2022-12-26T15:51:09.987Z,9.91
2022-12-26T15:54:15.233Z,9.87
2022-12-26T15:57:22.378Z,9.74
2022-12-26T16:00:10.357Z,9.80
2022-12-26T16:03:37.388Z,9.83
2022-12-26T16:06:50.835Z,9.92
2022-12-26T16:09:49.872Z,9.77
2022-12-26T16:12:39.832Z,9.91
2022-12-26T16:15:26.769Z,9.99
2022-12-26T16:18:31.957Z,10.01
2022-12-26T16:21:39.254Z,10.04
2022-12-26T16:24:27.276Z,10.10
2022-12-26T16:27:19.847Z,10.12
2022-12-26T16:30:13.531Z,9.98
2022-12-26T16:33:01.772Z,9.91
2022-12-26T16:35:48.810Z,9.62
2022-12-26T16:38:36.126Z,9.78
2022-12-26T16:41:26.963Z,9.68
2022-12-26T16:44:38.031Z,9.55
2022-12-26T16:47:32.000Z,9.40
2022-12-26T16:50:27.097Z,9.53
2022-12-26T16:53:22.561Z,9.47
2022-12-26T16:56:22.124Z,9.51
2022-12-26T16:59:17.802Z,9.16
2022-12-26T17:02:04.959Z,9.36
2022-12-26T17:04:59.039Z,9.21
2022-12-26T17:07:47.926Z,9.27
2022-12-26T17:10:37.376Z,9.18
2022-12-26T17:13:26.213Z,9.19
2022-12-26T17:16:16.775Z,9.09
2022-12-26T17:19:20.946Z,9.02
2022-12-26T17:22:22.231Z,8.93
2022-12-26T17:25:33.951Z,8.85
2022-12-26T17:28:20.075Z,8.85
2022-12-26T17:31:18.691Z,8.70
2022-12-26T17:34:17.295Z,8.78
2022-12-26T17:37:20.403Z,8.79
2022-12-26T17:40:16.145Z,8.76
2022-12-26T17:43:23.185Z,8.75
2022-12-26T17:46:13.668Z,8.89
2022-12-26T17:49:00.258Z,8.98
2022-12-26T17:51:54.532Z,8.91
2022-12-26T17:54:45.070Z,8.93
2022-12-26T17:57:31.999Z,8.75
2022-12-26T18:00:30.461Z,8.92
2022-12-26T18:03:17.262Z,8.85
2022-12-26T18:06:05.409Z,8.83
2022-12-26T18:08:51.996Z,8.96
2022-12-26T18:11:38.568Z,8.86
2022-12-26T18:14:26.804Z,9.04
2022-12-26T18:17:18.239Z,8.99
2022-12-26T18:20:06.015Z,9.00
2022-12-26T18:22:53.378Z,8.86
2022-12-26T18:25:39.834Z,8.77
2022-12-26T18:28:27.605Z,8.85
2022-12-26T18:31:17.468Z,8.86
2022-12-26T18:34:07.335Z,8.70
2022-12-26T18:36:54.033Z,8.71
2022-12-26T18:39:47.055Z,8.69
2022-12-26T18:42:42.582Z,8.55
2022-12-26T18:45:30.560Z,8.75
2022-12-26T18:48:17.273Z,8.56
2022-12-26T18:51:04.776Z,8.55
2022-12-26T18:53:51.657Z,8.30
2022-12-26T18:56:38.068Z,8.34
2022-12-26T18:59:24.404Z,8.14
2022-12-26T19:02:16.119Z,8.37
2022-12-26T19:05:02.397Z,8.34
2022-12-26T19:07:50.230Z,8.29
2022-12-26T19:10:36.858Z,8.20
2022-12-26T19:13:23.268Z,8.12
2022-12-26T19:16:10.627Z,8.16
2022-12-26T19:18:57.910Z,8.11
2022-12-26T19:21:44.033Z,7.90
2022-12-26T19:24:30.403Z,7.73
2022-12-26T19:27:16.869Z,7.54
2022-12-26T19:30:03.042Z,7.43
2022-12-26T19:32:50.265Z,7.42
2022-12-26T19:35:36.934Z,7.32
2022-12-26T19:38:23.405Z,7.35
2022-12-26T19:41:12.261Z,7.40
2022-12-26T19:43:59.823Z,7.36
2022-12-26T19:46:47.279Z,7.16
2022-12-26T19:49:33.954Z,7.32
2022-12-26T19:52:20.346Z,7.25
2022-12-26T19:55:10.357Z,7.20
2022-12-26T19:57:56.519Z,7.15
2022-12-26T20:00:43.690Z,7.06
2022-12-26T20:03:30.340Z,7.07
2022-12-26T20:06:19.581Z,7.08
2022-12-26T20:09:08.873Z,7.06
2022-12-26T20:11:55.909Z,6.98
2022-12-26T20:14:42.314Z,6.94
2022-12-26T20:17:29.055Z,7.04
2022-12-26T20:20:15.781Z,7.09
2022-12-26T20:23:03.007Z,6.99
2022-12-26T20:25:49.517Z,7.12
2022-12-26T20:28:36.586Z,7.12
2022-12-26T20:31:24.361Z,7.06
2022-12-26T20:34:14.417Z,7.11
2022-12-26T20:37:00.639Z,7.05
2022-12-26T20:39:47.301Z,6.84
2022-12-26T20:42:33.781Z,6.59
2022-12-26T20:45:19.940Z,6.69
2022-12-26T20:48:08.178Z,6.79
2022-12-26T20:51:04.376Z,6.88
2022-12-26T20:53:52.530Z,6.88
2022-12-26T20:56:41.825Z,6.90
2022-12-26T20:59:28.272Z,6.93
2022-12-26T21:02:14.656Z,7.00
2022-12-26T21:05:01.525Z,6.97
2022-12-26T21:07:47.799Z,7.13
2022-12-26T21:10:34.327Z,7.15
2022-12-26T21:13:20.549Z,7.07
2022-12-26T21:16:16.504Z,7.25
2022-12-26T21:19:08.011Z,7.22
2022-12-26T21:21:59.099Z,7.14
2022-12-26T21:24:45.419Z,7.20
2022-12-26T21:27:31.678Z,7.21
2022-12-26T21:30:18.777Z,7.17
2022-12-26T21:33:05.046Z,7.10
2022-12-26T21:35:53.254Z,7.22
2022-12-26T21:38:40.137Z,7.19
2022-12-26T21:41:26.672Z,7.20
2022-12-26T21:44:12.842Z,7.24
2022-12-26T21:46:59.427Z,7.16
2022-12-26T21:49:46.041Z,7.16
2022-12-26T21:52:32.315Z,7.09
2022-12-26T21:55:28.019Z,7.00
2022-12-26T21:58:14.551Z,7.09
2022-12-26T22:01:00.718Z,7.01
2022-12-26T22:04:06.413Z,7.03
2022-12-26T22:06:52.888Z,7.00
2022-12-26T22:09:39.071Z,6.98
2022-12-26T22:12:43.879Z,6.83
2022-12-26T22:15:49.077Z,6.89
2022-12-26T22:18:45.928Z,6.86
2022-12-26T22:21:32.460Z,6.89
2022-12-26T22:24:19.098Z,6.75
2022-12-26T22:27:05.468Z,6.87
2022-12-26T22:29:51.588Z,6.77
2022-12-26T22:32:38.382Z,6.78
2022-12-26T22:35:24.726Z,6.76
2022-12-26T22:38:11.467Z,6.78
2022-12-26T22:40:59.455Z,6.76
2022-12-26T22:43:46.058Z,6.60
2022-12-26T22:46:32.564Z,6.71
2022-12-26T22:49:19.024Z,6.63
2022-12-26T22:52:07.820Z,6.64
2022-12-26T22:54:57.383Z,6.59
2022-12-26T22:57:48.127Z,6.62
2022-12-26T23:00:37.798Z,6.61
2022-12-26T23:03:26.044Z,6.59
2022-12-26T23:06:33.778Z,6.32
2022-12-26T23:09:20.294Z,6.46
2022-12-26T23:12:25.779Z,6.41
2022-12-26T23:15:17.426Z,6.27
2022-12-26T23:18:36.237Z,6.16
2022-12-26T23:21:45.030Z,6.01
2022-12-26T23:24:32.810Z,5.98
2022-12-26T23:27:38.098Z,5.93
2022-12-26T23:30:30.952Z,5.86
2022-12-26T23:33:17.152Z,5.87
2022-12-26T23:36:04.419Z,5.84
2022-12-26T23:38:50.729Z,5.69
2022-12-26T23:41:37.858Z,5.69
2022-12-26T23:44:24.146Z,5.61
2022-12-26T23:47:10.431Z,5.56
2022-12-26T23:49:56.952Z,5.29
2022-12-26T23:52:43.645Z,5.27
2022-12-26T23:55:30.157Z,5.25
2022-12-26T23:58:16.631Z,5.22
